createdAt,value
2022-11-22T00:01:22.652Z,4.00
2022-11-22T00:03:51.339Z,6.50
2022-11-22T00:06:19.511Z,6.33
2022-11-22T00:08:48.716Z,4.33
2022-11-22T00:11:17.194Z,6.00
2022-11-22T00:13:45.577Z,6.00
2022-11-22T00:16:14.058Z,4.33
2022-11-22T00:18:42.533Z,5.50
2022-11-22T00:21:11.014Z,4.00
2022-11-22T00:23:39.394Z,4.00
2022-11-22T00:26:12.363Z,3.67
2022-11-22T00:28:40.764Z,5.00
2022-11-22T00:31:09.153Z,6.50
2022-11-22T00:33:37.520Z,6.00
2022-11-22T00:36:05.997Z,6.00
2022-11-22T00:38:37.247Z,5.00
2022-11-22T00:41:05.627Z,7.00
2022-11-22T00:43:34.106Z,7.00
2022-11-22T00:46:02.592Z,4.50
2022-11-22T00:48:31.071Z,8.00
2022-11-22T00:50:59.356Z,5.33
2022-11-22T00:53:27.940Z,7.00
2022-11-22T00:55:56.108Z,6.00
2022-11-22T00:58:24.487Z,5.00
2022-11-22T01:00:56.631Z,5.00
2022-11-22T01:03:25.691Z,5.00
2022-11-22T01:05:54.031Z,6.00
2022-11-22T01:08:22.814Z,2.75
2022-11-22T01:10:57.124Z,3.00
2022-11-22T01:13:26.568Z,5.00
2022-11-22T01:15:59.940Z,3.00
2022-11-22T01:18:28.326Z,7.00
2022-11-22T01:20:56.805Z,6.00
2022-11-22T01:23:25.279Z,5.00
2022-11-22T01:25:53.772Z,6.00
2022-11-22T01:28:22.243Z,6.33
2022-11-22T01:30:51.747Z,6.00
2022-11-22T01:33:20.844Z,7.00
2022-11-22T01:35:49.223Z,5.00
2022-11-22T01:38:17.823Z,6.00
2022-11-22T01:40:46.190Z,4.50
2022-11-22T01:43:25.507Z,7.00
2022-11-22T01:45:58.307Z,7.00
2022-11-22T01:48:31.301Z,7.00
2022-11-22T01:51:26.407Z,5.00
2022-11-22T01:53:57.540Z,7.33
2022-11-22T01:56:26.741Z,7.00
2022-11-22T01:59:00.061Z,6.00
2022-11-22T02:01:28.956Z,7.00
2022-11-22T02:03:59.354Z,7.00
2022-11-22T02:06:44.741Z,8.00
2022-11-22T02:09:13.317Z,7.00
2022-11-22T02:11:50.965Z,7.00
2022-11-22T02:14:22.567Z,8.00
2022-11-22T02:16:50.871Z,6.00
2022-11-22T02:19:43.493Z,8.00
2022-11-22T02:22:42.798Z,9.00
2022-11-22T02:25:29.916Z,8.00
2022-11-22T02:27:58.703Z,7.67
2022-11-22T02:30:27.083Z,8.00
2022-11-22T02:32:58.353Z,9.00
2022-11-22T02:35:28.962Z,7.50
2022-11-22T02:37:58.774Z,7.00
2022-11-22T02:40:29.289Z,10.50
2022-11-22T02:43:03.815Z,8.00
2022-11-22T02:45:32.110Z,9.00
2022-11-22T02:48:17.789Z,8.50
2022-11-22T02:50:46.372Z,11.00
2022-11-22T02:53:14.959Z,13.33
2022-11-22T02:55:43.238Z,9.00
2022-11-22T02:58:11.614Z,10.00
2022-11-22T03:00:40.286Z,9.00
2022-11-22T03:03:08.682Z,14.00
2022-11-22T03:05:37.069Z,10.00
2022-11-22T03:08:05.548Z,7.00
2022-11-22T03:10:33.924Z,9.00
2022-11-22T03:13:02.299Z,6.00
2022-11-22T03:15:30.781Z,8.00
2022-11-22T03:18:00.592Z,8.25
2022-11-22T03:20:29.257Z,10.00
2022-11-22T03:23:00.117Z,9.00
2022-11-22T03:25:29.063Z,11.00
2022-11-22T03:27:57.289Z,9.00
2022-11-22T03:30:25.874Z,10.00
2022-11-22T03:32:54.149Z,8.00
2022-11-22T03:35:22.533Z,9.00
2022-11-22T03:37:50.906Z,7.50
2022-11-22T03:40:21.336Z,7.00
2022-11-22T03:42:49.618Z,8.00
2022-11-22T03:45:18.232Z,8.00
2022-11-22T03:47:46.587Z,7.00
2022-11-22T03:50:15.833Z,7.50
2022-11-22T03:52:44.080Z,10.00
2022-11-22T03:55:12.250Z,7.00
2022-11-22T03:57:40.447Z,8.00
2022-11-22T04:00:10.519Z,10.00
2022-11-22T04:02:38.736Z,6.50
2022-11-22T04:05:07.509Z,9.00
2022-11-22T04:07:36.008Z,8.00
2022-11-22T04:10:05.916Z,6.00
2022-11-22T04:12:34.768Z,8.00
2022-11-22T04:15:09.397Z,6.67
2022-11-22T04:17:45.149Z,7.00
2022-11-22T04:20:40.667Z,8.00
2022-11-22T04:23:11.309Z,8.00
2022-11-22T04:25:42.958Z,10.00
2022-11-22T04:28:12.150Z,7.33
2022-11-22T04:30:59.168Z,8.00
2022-11-22T04:33:27.545Z,8.00
2022-11-22T04:35:56.130Z,8.00
2022-11-22T04:38:24.917Z,10.00
2022-11-22T04:40:53.198Z,6.67
2022-11-22T04:43:43.183Z,8.00
2022-11-22T04:46:12.584Z,7.00
2022-11-22T04:48:41.613Z,6.00
2022-11-22T04:51:32.077Z,9.00
2022-11-22T04:54:00.762Z,7.50
2022-11-22T04:56:29.148Z,7.00
2022-11-22T04:58:57.528Z,9.67
2022-11-22T05:01:25.967Z,12.00
2022-11-22T05:03:54.518Z,8.00
2022-11-22T05:06:22.873Z,8.67
2022-11-22T05:08:51.346Z,7.00
2022-11-22T05:11:19.931Z,8.00
2022-11-22T05:13:48.622Z,6.50
2022-11-22T05:16:17.209Z,7.00
2022-11-22T05:18:59.531Z,7.00
2022-11-22T05:21:29.443Z,6.00
2022-11-22T05:23:57.858Z,8.00
2022-11-22T05:26:27.208Z,5.00
2022-11-22T05:28:57.203Z,6.00
2022-11-22T05:31:27.759Z,7.00
2022-11-22T05:33:59.586Z,5.00
2022-11-22T05:36:27.894Z,6.00
2022-11-22T05:38:56.269Z,8.50
2022-11-22T05:41:24.752Z,7.00
2022-11-22T05:43:56.419Z,6.00
2022-11-22T05:46:27.039Z,7.00
2022-11-22T05:48:56.651Z,6.00
2022-11-22T05:51:33.665Z,6.67
2022-11-22T05:54:03.747Z,5.00
2022-11-22T05:56:32.227Z,4.50
2022-11-22T05:59:00.621Z,5.00
2022-11-22T06:01:29.201Z,8.00
2022-11-22T06:03:57.572Z,6.00
2022-11-22T06:06:25.950Z,5.00
2022-11-22T06:08:54.462Z,7.00
2022-11-22T06:11:25.830Z,5.00
2022-11-22T06:13:59.290Z,8.50
2022-11-22T06:16:27.971Z,6.00
2022-11-22T06:18:57.068Z,6.00
2022-11-22T06:21:29.034Z,5.00
2022-11-22T06:23:57.614Z,7.00
2022-11-22T06:26:26.613Z,5.00
2022-11-22T06:28:55.500Z,9.00
2022-11-22T06:31:25.875Z,5.67
2022-11-22T06:34:02.397Z,6.00
2022-11-22T06:36:33.525Z,5.00
2022-11-22T06:39:04.022Z,5.00
2022-11-22T06:41:35.062Z,7.75
2022-11-22T06:44:08.082Z,6.00
2022-11-22T06:46:37.202Z,7.00
2022-11-22T06:49:05.575Z,7.00
2022-11-22T06:51:34.258Z,8.00
2022-11-22T06:54:02.639Z,5.00
2022-11-22T06:56:38.904Z,4.00
2022-11-22T06:59:08.407Z,5.00
2022-11-22T07:01:37.750Z,5.00
2022-11-22T07:04:06.507Z,6.25
2022-11-22T07:06:37.486Z,6.00
2022-11-22T07:09:10.479Z,7.67
2022-11-22T07:11:39.830Z,7.00
2022-11-22T07:14:09.356Z,7.00
2022-11-22T07:16:38.857Z,8.33
2022-11-22T07:19:07.729Z,8.00
2022-11-22T07:21:37.708Z,7.50
2022-11-22T07:24:07.306Z,7.50
2022-11-22T07:26:35.653Z,8.00
2022-11-22T07:29:04.831Z,10.00
2022-11-22T07:31:33.315Z,10.00
2022-11-22T07:34:01.796Z,7.00
2022-11-22T07:36:30.682Z,9.00
2022-11-22T07:38:59.064Z,9.00
2022-11-22T07:41:27.758Z,4.00
2022-11-22T07:43:56.137Z,10.00
2022-11-22T07:46:29.649Z,5.67
2022-11-22T07:48:58.957Z,5.00
2022-11-22T07:51:27.706Z,8.00
2022-11-22T07:53:56.928Z,10.50
2022-11-22T07:56:25.298Z,12.00
2022-11-22T07:58:53.677Z,9.00
2022-11-22T08:01:22.103Z,10.00
2022-11-22T08:03:50.437Z,12.00
2022-11-22T08:06:19.019Z,9.00
2022-11-22T08:08:47.305Z,13.00
2022-11-22T08:11:15.780Z,9.00
2022-11-22T08:13:44.875Z,9.50
2022-11-22T08:16:16.191Z,12.00
2022-11-22T08:18:49.147Z,12.00
2022-11-22T08:21:19.026Z,10.00
2022-11-22T08:23:48.748Z,8.00
2022-11-22T08:26:18.459Z,10.50
2022-11-22T08:28:46.824Z,9.00
2022-11-22T08:31:19.242Z,11.00
2022-11-22T08:33:48.452Z,10.00
2022-11-22T08:36:16.878Z,11.00
2022-11-22T08:38:45.466Z,9.00
2022-11-22T08:41:13.943Z,12.00
2022-11-22T08:43:42.425Z,10.50
2022-11-22T08:46:11.319Z,10.00
2022-11-22T08:48:39.591Z,9.50
2022-11-22T08:51:10.093Z,10.50
2022-11-22T08:53:40.651Z,14.00
2022-11-22T08:56:14.362Z,10.50
2022-11-22T08:58:43.382Z,9.00
2022-11-22T09:01:14.458Z,9.50
2022-11-22T09:03:44.204Z,12.67
2022-11-22T09:11:55.318Z,10.50
2022-11-22T09:14:23.805Z,6.33
2022-11-22T09:16:52.285Z,15.00
2022-11-22T09:19:20.661Z,13.00
2022-11-22T09:21:49.043Z,12.00
2022-11-22T09:24:17.623Z,13.00
2022-11-22T09:26:46.003Z,13.50
2022-11-22T09:29:16.107Z,10.50
2022-11-22T09:31:44.709Z,15.00
2022-11-22T09:34:13.093Z,12.00
2022-11-22T09:36:41.575Z,15.00
2022-11-22T09:39:10.462Z,10.67
2022-11-22T09:42:00.142Z,12.00
2022-11-22T09:44:54.639Z,11.00
2022-11-22T09:48:03.082Z,11.33
2022-11-22T09:50:40.771Z,13.00
2022-11-22T09:53:14.679Z,13.33
2022-11-22T09:55:48.157Z,9.00
2022-11-22T09:58:37.434Z,11.00
2022-11-22T10:01:16.411Z,12.00
2022-11-22T10:03:49.770Z,14.50
2022-11-22T10:06:31.706Z,12.33
2022-11-22T10:09:18.559Z,13.50
2022-11-22T10:12:13.667Z,11.00
2022-11-22T10:15:05.804Z,12.00
2022-11-22T10:17:56.527Z,14.00
2022-11-22T10:20:27.296Z,12.00
2022-11-22T10:22:56.437Z,10.00
2022-11-22T10:25:28.195Z,13.00
2022-11-22T10:28:01.094Z,8.00
2022-11-22T10:30:36.261Z,10.00
2022-11-22T10:33:18.229Z,11.00
2022-11-22T10:35:58.887Z,8.50
2022-11-22T10:39:05.662Z,14.50
2022-11-22T10:42:19.205Z,7.00
2022-11-22T10:45:05.604Z,10.25
2022-11-22T10:47:47.120Z,11.00
2022-11-22T10:50:32.881Z,12.00
2022-11-22T10:53:25.433Z,13.33
2022-11-22T10:56:22.886Z,15.00
2022-11-22T10:59:27.368Z,13.00
2022-11-22T11:02:10.950Z,13.00
2022-11-22T11:04:41.481Z,14.00
2022-11-22T11:07:17.710Z,7.00
2022-11-22T11:10:10.336Z,10.00
2022-11-22T11:12:42.717Z,14.50
2022-11-22T11:15:36.439Z,11.00
2022-11-22T11:18:11.103Z,8.00
2022-11-22T11:20:42.628Z,17.00
2022-11-22T11:23:15.730Z,14.00
2022-11-22T11:25:47.348Z,11.50
2022-11-22T11:28:21.678Z,11.33
2022-11-22T11:31:07.671Z,12.00
2022-11-22T11:33:41.175Z,9.00
2022-11-22T11:36:14.571Z,10.50
2022-11-22T11:38:42.846Z,11.00
2022-11-22T11:41:38.689Z,12.50
2022-11-22T11:44:29.590Z,11.00
2022-11-22T11:46:59.084Z,14.00
2022-11-22T11:49:32.618Z,10.50
2022-11-22T11:52:05.694Z,10.00
2022-11-22T11:54:46.408Z,15.00
2022-11-22T11:57:15.949Z,10.67
2022-11-22T11:59:47.356Z,9.33
2022-11-22T12:02:24.112Z,9.67
2022-11-22T12:05:00.952Z,11.00
2022-11-22T12:07:49.994Z,12.50
2022-11-22T12:10:45.750Z,14.00
2022-11-22T12:13:30.600Z,12.00
2022-11-22T12:16:24.885Z,9.00
2022-11-22T12:19:30.750Z,12.00
2022-11-22T12:22:47.808Z,6.67
2022-11-22T12:25:36.411Z,13.00
2022-11-22T12:28:20.264Z,11.00
2022-11-22T12:31:23.968Z,9.50
2022-11-22T12:34:01.578Z,8.00
2022-11-22T12:36:44.178Z,10.50
2022-11-22T12:39:17.989Z,11.00
2022-11-22T12:41:48.718Z,9.00
2022-11-22T12:44:20.275Z,9.00
2022-11-22T12:46:59.260Z,9.00
2022-11-22T12:49:56.356Z,9.50
2022-11-22T12:52:30.380Z,11.50
2022-11-22T12:55:13.900Z,10.50
2022-11-22T12:58:10.032Z,7.33
2022-11-22T13:00:47.814Z,6.00
2022-11-22T13:03:21.786Z,15.00
2022-11-22T13:05:54.741Z,9.75
2022-11-22T13:08:52.839Z,10.00
2022-11-22T13:11:28.683Z,11.00
2022-11-22T13:14:26.029Z,12.00
2022-11-22T13:16:54.506Z,11.00
2022-11-22T13:19:26.153Z,16.00
2022-11-22T13:22:06.324Z,14.00
2022-11-22T13:24:56.600Z,11.00
2022-11-22T13:27:29.682Z,11.00
2022-11-22T13:30:00.427Z,10.50
2022-11-22T13:32:36.385Z,12.00
2022-11-22T13:35:06.666Z,14.50
2022-11-22T13:37:45.740Z,14.00
2022-11-22T13:40:17.189Z,11.00
2022-11-22T13:42:45.570Z,10.50
2022-11-22T13:45:24.698Z,12.33
2022-11-22T13:47:53.283Z,12.00
2022-11-22T13:50:36.919Z,10.00
2022-11-22T13:55:51.599Z,8.00
2022-11-22T13:58:26.123Z,12.00
2022-11-22T14:00:56.192Z,12.50
2022-11-22T14:03:34.044Z,16.00
2022-11-22T14:06:20.036Z,3.00
2022-11-22T14:08:49.444Z,13.00
2022-11-22T14:11:21.094Z,14.33
2022-11-22T14:13:58.487Z,10.00
2022-11-22T14:16:40.278Z,11.00
2022-11-22T14:19:34.672Z,9.50
2022-11-22T14:22:23.117Z,11.00
2022-11-22T14:25:05.629Z,13.00
2022-11-22T14:27:50.317Z,10.50
2022-11-22T14:30:20.102Z,9.00
2022-11-22T14:33:06.300Z,10.00
2022-11-22T14:35:36.844Z,15.00
2022-11-22T14:40:35.328Z,12.00
2022-11-22T14:43:26.442Z,11.00
2022-11-22T14:46:02.451Z,12.00
2022-11-22T14:49:00.884Z,14.50
2022-11-22T14:51:32.620Z,15.33
2022-11-22T14:54:16.384Z,18.00
2022-11-22T14:56:45.476Z,17.00
2022-11-22T14:59:32.061Z,16.00
2022-11-22T15:02:04.875Z,10.00
2022-11-22T15:09:17.863Z,17.00
2022-11-22T15:09:23.396Z,19.00
2022-11-22T15:11:33.918Z,18.00
2022-11-22T15:14:08.030Z,19.00
2022-11-22T15:57:36.009Z,37.50
2022-11-22T16:00:27.805Z,39.50
2022-11-22T16:03:02.048Z,41.00
2022-11-22T16:06:06.047Z,42.50
2022-11-22T16:08:31.027Z,37.33
2022-11-22T16:11:02.080Z,41.00
2022-11-22T16:13:35.899Z,41.00
2022-11-22T16:16:13.275Z,44.00
2022-11-22T16:18:45.338Z,41.00
2022-11-22T16:21:19.760Z,42.00
2022-11-22T16:23:48.449Z,40.50
2022-11-22T16:26:22.471Z,37.50
2022-11-22T16:28:55.446Z,39.00
2022-11-22T16:31:25.983Z,36.50
2022-11-22T16:33:55.498Z,41.33
2022-11-22T16:36:27.710Z,39.00
2022-11-22T16:38:56.032Z,38.00
2022-11-22T16:41:29.227Z,39.00
2022-11-22T16:44:01.500Z,36.50
2022-11-22T16:46:30.177Z,42.00
2022-11-22T16:48:58.454Z,40.00
2022-11-22T16:51:28.886Z,37.00
2022-11-22T16:53:59.931Z,36.00
2022-11-22T16:56:30.219Z,39.00
2022-11-22T16:58:58.851Z,45.50
2022-11-22T17:01:33.212Z,39.50
2022-11-22T17:04:03.401Z,42.00
2022-11-22T17:06:32.575Z,38.00
2022-11-22T17:09:01.384Z,38.00
2022-11-22T17:11:33.019Z,38.50
2022-11-22T17:14:01.910Z,39.00
2022-11-22T17:16:30.390Z,40.50
2022-11-22T17:18:58.870Z,38.50
2022-11-22T17:21:37.292Z,35.00
2022-11-22T17:24:16.314Z,39.00
2022-11-22T17:26:45.004Z,39.00
2022-11-22T17:29:28.974Z,35.00
2022-11-22T17:32:01.422Z,37.00
2022-11-22T17:34:30.203Z,38.00
2022-11-22T17:36:58.796Z,38.33
2022-11-22T17:39:27.174Z,38.00
2022-11-22T17:41:55.552Z,36.00
2022-11-22T17:44:24.249Z,37.00
2022-11-22T17:46:52.515Z,34.50
2022-11-22T17:49:21.100Z,35.00
2022-11-22T17:51:52.250Z,36.00
2022-11-22T17:54:20.630Z,32.00
2022-11-22T17:56:49.004Z,34.00
2022-11-22T17:59:17.384Z,34.00
2022-11-22T18:01:45.669Z,34.00
2022-11-22T18:04:14.913Z,36.50
2022-11-22T18:06:43.323Z,33.00
2022-11-22T18:09:11.667Z,32.50
2022-11-22T18:11:39.870Z,26.00
2022-11-22T18:14:08.150Z,29.33
2022-11-22T18:16:36.433Z,29.00
2022-11-22T18:19:08.445Z,29.00
2022-11-22T18:21:38.034Z,30.50
2022-11-22T18:24:08.713Z,31.00
2022-11-22T18:26:39.909Z,35.67
2022-11-22T18:29:40.777Z,31.50
2022-11-22T18:31:58.328Z,29.00
2022-11-22T18:34:27.842Z,33.00
2022-11-22T18:37:01.287Z,28.50
2022-11-22T18:39:33.340Z,26.00
2022-11-22T18:42:02.154Z,27.00
2022-11-22T18:44:30.391Z,29.00
2022-11-22T18:46:58.885Z,28.00
2022-11-22T18:49:27.205Z,27.50
2022-11-22T18:51:55.946Z,23.00
2022-11-22T18:54:24.295Z,25.00
2022-11-22T18:56:52.620Z,26.00
2022-11-22T18:59:20.897Z,24.00
2022-11-22T19:01:49.186Z,21.00
2022-11-22T19:04:17.519Z,26.50
2022-11-22T19:06:46.076Z,24.00
2022-11-22T19:09:14.329Z,24.00
2022-11-22T19:11:42.577Z,24.00
2022-11-22T19:14:11.164Z,23.67
2022-11-22T19:16:39.342Z,23.67
2022-11-22T19:19:11.864Z,23.33
2022-11-22T19:21:42.909Z,25.50
2022-11-22T19:24:11.138Z,22.00
2022-11-22T19:26:39.321Z,20.00
2022-11-22T19:29:08.832Z,21.50
2022-11-22T19:31:37.133Z,26.00
2022-11-22T19:34:05.479Z,20.00
2022-11-22T19:36:34.896Z,23.00
2022-11-22T19:39:04.588Z,19.50
2022-11-22T19:41:33.354Z,18.00
2022-11-22T19:44:02.054Z,19.00
2022-11-22T19:46:30.841Z,21.00
2022-11-22T19:49:00.239Z,17.00
2022-11-22T19:51:29.953Z,15.33
2022-11-22T19:54:00.483Z,22.00
2022-11-22T19:56:31.541Z,24.00
2022-11-22T19:59:01.220Z,22.00
2022-11-22T20:01:31.686Z,19.00
2022-11-22T20:04:05.830Z,18.33
2022-11-22T20:06:35.644Z,21.50
2022-11-22T20:09:09.903Z,20.00
2022-11-22T20:11:39.874Z,18.25
2022-11-22T20:14:09.603Z,16.00
2022-11-22T20:16:41.844Z,15.00
2022-11-22T20:19:12.608Z,15.00
2022-11-22T20:21:41.050Z,20.50
2022-11-22T20:24:09.592Z,19.50
2022-11-22T20:26:37.753Z,16.50
2022-11-22T20:29:12.550Z,18.00
2022-11-22T20:31:41.372Z,17.33
2022-11-22T20:34:09.769Z,18.50
2022-11-22T20:36:38.009Z,22.33
2022-11-22T20:39:10.617Z,19.50
2022-11-22T20:41:40.675Z,19.33
2022-11-22T20:44:12.462Z,17.33
2022-11-22T20:46:41.114Z,16.50
2022-11-22T20:49:09.422Z,12.25
2022-11-22T20:51:40.031Z,17.00
2022-11-22T20:54:09.290Z,17.50
2022-11-22T20:56:38.427Z,17.00
2022-11-22T20:59:07.079Z,17.50
2022-11-22T21:01:35.446Z,17.00
2022-11-22T21:04:03.645Z,13.33
2022-11-22T21:06:33.859Z,14.00
2022-11-22T21:09:02.162Z,16.50
2022-11-22T21:11:32.234Z,16.00
2022-11-22T21:14:00.462Z,14.00
2022-11-22T21:16:29.720Z,16.33
2022-11-22T21:19:05.123Z,16.00
2022-11-22T21:21:35.997Z,15.00
2022-11-22T21:24:05.635Z,16.00
2022-11-22T21:26:34.293Z,13.00
2022-11-22T21:29:04.392Z,13.00
2022-11-22T21:31:32.619Z,16.67
2022-11-22T21:34:00.851Z,12.00
2022-11-22T21:36:29.134Z,18.00
2022-11-22T21:38:57.397Z,15.00
2022-11-22T21:41:40.000Z,16.00
2022-11-22T21:44:09.615Z,19.00
2022-11-22T21:46:38.174Z,15.00
2022-11-22T21:49:06.465Z,13.00
2022-11-22T21:51:34.594Z,16.00
2022-11-22T21:54:03.780Z,16.00
2022-11-22T21:56:32.036Z,15.00
2022-11-22T21:59:00.526Z,15.00
2022-11-22T22:01:28.996Z,17.00
2022-11-22T22:03:57.317Z,15.00
2022-11-22T22:06:25.560Z,14.50
2022-11-22T22:08:53.743Z,14.00
2022-11-22T22:11:22.347Z,14.00
2022-11-22T22:13:53.418Z,16.00
2022-11-22T22:16:24.003Z,17.00
2022-11-22T22:18:53.193Z,17.75
2022-11-22T22:21:21.676Z,16.33
2022-11-22T22:23:50.008Z,17.00
2022-11-22T22:26:18.237Z,17.25
2022-11-22T22:28:46.883Z,16.00
2022-11-22T22:31:23.213Z,16.00
2022-11-22T22:33:53.889Z,14.50
2022-11-22T22:36:23.199Z,15.00
2022-11-22T22:38:51.433Z,18.67
2022-11-22T22:41:19.795Z,15.67
2022-11-22T22:43:48.820Z,14.67
2022-11-22T22:46:23.062Z,15.50
2022-11-22T22:48:52.083Z,16.75
2022-11-22T22:51:26.268Z,16.50
2022-11-22T22:53:58.785Z,18.00
2022-11-22T22:56:28.702Z,12.00
2022-11-22T22:58:58.146Z,17.33
2022-11-22T23:01:28.187Z,16.50
2022-11-22T23:03:58.698Z,18.00
2022-11-22T23:06:31.900Z,17.00
2022-11-22T23:09:00.201Z,21.00
2022-11-22T23:11:48.762Z,14.33
2022-11-22T23:14:24.888Z,16.00
2022-11-22T23:16:57.630Z,17.00
2022-11-22T23:19:27.251Z,12.33
2022-11-22T23:21:56.003Z,15.50
2022-11-22T23:24:24.553Z,14.00
2022-11-22T23:26:52.654Z,20.00
2022-11-22T23:29:20.804Z,15.00
2022-11-22T23:31:49.006Z,18.00
2022-11-22T23:34:17.238Z,16.00
2022-11-22T23:36:45.504Z,19.00
2022-11-22T23:39:13.779Z,15.33
2022-11-22T23:41:42.221Z,17.67
2022-11-22T23:44:10.469Z,16.00
2022-11-22T23:46:38.843Z,17.00
2022-11-22T23:49:07.566Z,16.25
2022-11-22T23:51:36.736Z,19.50
2022-11-22T23:54:06.403Z,17.00
2022-11-22T23:56:35.471Z,19.00
2022-11-22T23:59:05.213Z,19.00
